sensor_id;sensor_type;location;lat;lon;timestamp;P1;durP1;ratioP1;P2;durP2;ratioP2
16478;SDS011;8350;52.316;10.530;2022-07-12T00:00:04;2.05;;;1.75;;
16478;SDS011;8350;52.316;10.530;2022-07-12T00:02:34;2.05;;;1.80;;
16478;SDS011;8350;52.316;10.530;2022-07-12T00:05:02;1.80;;;1.70;;
16478;SDS011;8350;52.316;10.530;2022-07-12T00:07:30;3.35;;;1.75;;
16478;SDS011;8350;52.316;10.530;2022-07-12T00:09:58;1.88;;;1.77;;
16478;SDS011;8350;52.316;10.530;2022-07-12T00:12:25;2.00;;;1.80;;
16478;SDS011;8350;52.316;10.530;2022-07-12T00:14:52;1.80;;;1.70;;
16478;SDS011;8350;52.316;10.530;2022-07-12T00:17:19;2.58;;;1.90;;
16478;SDS011;8350;52.316;10.530;2022-07-12T00:19:46;2.45;;;1.52;;
16478;SDS011;8350;52.316;10.530;2022-07-12T00:22:19;1.52;;;1.42;;
16478;SDS011;8350;52.316;10.530;2022-07-12T00:24:47;1.63;;;1.52;;
16478;SDS011;8350;52.316;10.530;2022-07-12T00:27:14;1.70;;;1.60;;
16478;SDS011;8350;52.316;10.530;2022-07-12T00:29:41;1.83;;;1.73;;
16478;SDS011;8350;52.316;10.530;2022-07-12T00:32:08;1.63;;;1.52;;
16478;SDS011;8350;52.316;10.530;2022-07-12T00:34:38;1.50;;;1.33;;
16478;SDS011;8350;52.316;10.530;2022-07-12T00:37:05;2.45;;;1.58;;
16478;SDS011;8350;52.316;10.530;2022-07-12T00:39:33;1.50;;;1.40;;
16478;SDS011;8350;52.316;10.530;2022-07-12T00:44:31;1.88;;;1.65;;
16478;SDS011;8350;52.316;10.530;2022-07-12T00:46:58;2.13;;;2.03;;
16478;SDS011;8350;52.316;10.530;2022-07-12T00:49:25;3.45;;;2.22;;
16478;SDS011;8350;52.316;10.530;2022-07-12T00:51:53;2.45;;;2.25;;
16478;SDS011;8350;52.316;10.530;2022-07-12T00:54:20;2.30;;;2.13;;
16478;SDS011;8350;52.316;10.530;2022-07-12T00:56:48;3.53;;;2.10;;
16478;SDS011;8350;52.316;10.530;2022-07-12T00:59:15;2.53;;;2.33;;
16478;SDS011;8350;52.316;10.530;2022-07-12T01:01:42;2.65;;;1.90;;
16478;SDS011;8350;52.316;10.530;2022-07-12T01:04:09;2.45;;;2.22;;
16478;SDS011;8350;52.316;10.530;2022-07-12T01:06:45;3.42;;;2.38;;
16478;SDS011;8350;52.316;10.530;2022-07-12T01:09:12;2.72;;;2.40;;
16478;SDS011;8350;52.316;10.530;2022-07-12T01:11:42;3.03;;;2.80;;
16478;SDS011;8350;52.316;10.530;2022-07-12T01:14:11;3.20;;;3.00;;
16478;SDS011;8350;52.316;10.530;2022-07-12T01:16:38;3.22;;;2.95;;
16478;SDS011;8350;52.316;10.530;2022-07-12T01:19:06;2.92;;;2.72;;
16478;SDS011;8350;52.316;10.530;2022-07-12T01:21:34;2.88;;;2.67;;
16478;SDS011;8350;52.316;10.530;2022-07-12T01:24:05;3.17;;;2.67;;
16478;SDS011;8350;52.316;10.530;2022-07-12T01:26:34;3.58;;;3.28;;
16478;SDS011;8350;52.316;10.530;2022-07-12T01:29:02;3.80;;;3.10;;
16478;SDS011;8350;52.316;10.530;2022-07-12T01:31:29;3.13;;;2.83;;
16478;SDS011;8350;52.316;10.530;2022-07-12T01:34:02;3.30;;;2.80;;
16478;SDS011;8350;52.316;10.530;2022-07-12T01:36:29;2.53;;;2.33;;
16478;SDS011;8350;52.316;10.530;2022-07-12T01:38:56;2.50;;;2.28;;
16478;SDS011;8350;52.316;10.530;2022-07-12T01:41:24;3.28;;;2.97;;
16478;SDS011;8350;52.316;10.530;2022-07-12T01:43:51;2.75;;;2.55;;
16478;SDS011;8350;52.316;10.530;2022-07-12T01:46:19;3.13;;;2.92;;
16478;SDS011;8350;52.316;10.530;2022-07-12T01:48:48;2.88;;;2.67;;
16478;SDS011;8350;52.316;10.530;2022-07-12T01:51:15;2.88;;;2.33;;
16478;SDS011;8350;52.316;10.530;2022-07-12T01:53:42;3.65;;;3.28;;
16478;SDS011;8350;52.316;10.530;2022-07-12T01:56:09;3.22;;;2.92;;
16478;SDS011;8350;52.316;10.530;2022-07-12T01:58:38;2.60;;;2.40;;
16478;SDS011;8350;52.316;10.530;2022-07-12T02:01:05;2.80;;;2.58;;
16478;SDS011;8350;52.316;10.530;2022-07-12T02:03:33;3.60;;;3.30;;
16478;SDS011;8350;52.316;10.530;2022-07-12T02:06:01;3.85;;;3.45;;
16478;SDS011;8350;52.316;10.530;2022-07-12T02:08:28;5.60;;;3.85;;
16478;SDS011;8350;52.316;10.530;2022-07-12T02:10:54;4.68;;;4.28;;
16478;SDS011;8350;52.316;10.530;2022-07-12T02:13:21;4.82;;;4.43;;
16478;SDS011;8350;52.316;10.530;2022-07-12T02:15:50;4.68;;;4.28;;
16478;SDS011;8350;52.316;10.530;2022-07-12T02:18:17;5.80;;;5.20;;
16478;SDS011;8350;52.316;10.530;2022-07-12T02:20:44;5.35;;;4.82;;
16478;SDS011;8350;52.316;10.530;2022-07-12T02:23:11;5.63;;;4.50;;
16478;SDS011;8350;52.316;10.530;2022-07-12T02:25:38;5.65;;;5.00;;
16478;SDS011;8350;52.316;10.530;2022-07-12T02:28:05;4.68;;;4.28;;
16478;SDS011;8350;52.316;10.530;2022-07-12T02:30:34;5.78;;;5.20;;
16478;SDS011;8350;52.316;10.530;2022-07-12T02:33:02;6.75;;;4.47;;
16478;SDS011;8350;52.316;10.530;2022-07-12T02:35:29;5.50;;;5.07;;
16478;SDS011;8350;52.316;10.530;2022-07-12T02:37:58;5.65;;;5.15;;
16478;SDS011;8350;52.316;10.530;2022-07-12T02:40:25;5.22;;;4.72;;
16478;SDS011;8350;52.316;10.530;2022-07-12T02:43:09;5.43;;;4.50;;
16478;SDS011;8350;52.316;10.530;2022-07-12T02:45:36;5.22;;;4.75;;
16478;SDS011;8350;52.316;10.530;2022-07-12T02:48:05;4.45;;;4.05;;
16478;SDS011;8350;52.316;10.530;2022-07-12T02:50:32;5.10;;;4.55;;
16478;SDS011;8350;52.316;10.530;2022-07-12T02:52:59;4.85;;;3.92;;
16478;SDS011;8350;52.316;10.530;2022-07-12T02:55:26;4.95;;;4.10;;
16478;SDS011;8350;52.316;10.530;2022-07-12T02:57:53;4.82;;;3.78;;
16478;SDS011;8350;52.316;10.530;2022-07-12T03:00:20;4.13;;;3.20;;
16478;SDS011;8350;52.316;10.530;2022-07-12T03:02:48;4.25;;;3.85;;
16478;SDS011;8350;52.316;10.530;2022-07-12T03:05:16;3.70;;;3.38;;
16478;SDS011;8350;52.316;10.530;2022-07-12T03:07:43;3.92;;;3.53;;
16478;SDS011;8350;52.316;10.530;2022-07-12T03:10:13;4.05;;;3.65;;
16478;SDS011;8350;52.316;10.530;2022-07-12T03:12:44;4.57;;;3.78;;
16478;SDS011;8350;52.316;10.530;2022-07-12T03:15:14;5.40;;;4.10;;
16478;SDS011;8350;52.316;10.530;2022-07-12T03:17:41;5.45;;;4.28;;
16478;SDS011;8350;52.316;10.530;2022-07-12T03:20:09;5.60;;;4.85;;
16478;SDS011;8350;52.316;10.530;2022-07-12T03:22:38;4.82;;;4.32;;
16478;SDS011;8350;52.316;10.530;2022-07-12T03:25:05;4.88;;;4.47;;
16478;SDS011;8350;52.316;10.530;2022-07-12T03:27:39;6.18;;;4.40;;
16478;SDS011;8350;52.316;10.530;2022-07-12T03:30:06;4.72;;;4.32;;
16478;SDS011;8350;52.316;10.530;2022-07-12T03:32:41;4.43;;;3.78;;
16478;SDS011;8350;52.316;10.530;2022-07-12T03:35:09;4.78;;;4.38;;
16478;SDS011;8350;52.316;10.530;2022-07-12T03:37:42;5.03;;;4.30;;
16478;SDS011;8350;52.316;10.530;2022-07-12T03:40:10;5.88;;;5.25;;
16478;SDS011;8350;52.316;10.530;2022-07-12T03:42:39;6.90;;;4.88;;
16478;SDS011;8350;52.316;10.530;2022-07-12T03:45:06;6.93;;;5.32;;
16478;SDS011;8350;52.316;10.530;2022-07-12T03:47:34;5.28;;;4.78;;
16478;SDS011;8350;52.316;10.530;2022-07-12T03:50:01;5.50;;;5.07;;
16478;SDS011;8350;52.316;10.530;2022-07-12T03:52:29;5.70;;;4.97;;
16478;SDS011;8350;52.316;10.530;2022-07-12T03:54:58;6.28;;;5.00;;
16478;SDS011;8350;52.316;10.530;2022-07-12T03:57:26;5.53;;;5.03;;
16478;SDS011;8350;52.316;10.530;2022-07-12T03:59:55;5.30;;;4.65;;
16478;SDS011;8350;52.316;10.530;2022-07-12T04:02:22;6.57;;;5.40;;
16478;SDS011;8350;52.316;10.530;2022-07-12T04:04:49;9.52;;;6.45;;
16478;SDS011;8350;52.316;10.530;2022-07-12T04:07:16;6.35;;;5.75;;
16478;SDS011;8350;52.316;10.530;2022-07-12T04:09:47;6.15;;;5.40;;
16478;SDS011;8350;52.316;10.530;2022-07-12T04:12:15;5.82;;;5.22;;
16478;SDS011;8350;52.316;10.530;2022-07-12T04:14:42;6.63;;;6.03;;
16478;SDS011;8350;52.316;10.530;2022-07-12T04:17:09;6.75;;;6.15;;
16478;SDS011;8350;52.316;10.530;2022-07-12T04:19:37;7.60;;;6.82;;
16478;SDS011;8350;52.316;10.530;2022-07-12T04:22:04;9.15;;;6.68;;
16478;SDS011;8350;52.316;10.530;2022-07-12T04:24:31;7.53;;;6.82;;
16478;SDS011;8350;52.316;10.530;2022-07-12T04:26:58;8.57;;;7.78;;
16478;SDS011;8350;52.316;10.530;2022-07-12T04:29:26;6.40;;;5.80;;
16478;SDS011;8350;52.316;10.530;2022-07-12T04:31:53;7.13;;;6.53;;
16478;SDS011;8350;52.316;10.530;2022-07-12T04:34:20;9.95;;;6.97;;
16478;SDS011;8350;52.316;10.530;2022-07-12T04:36:47;5.88;;;5.38;;
16478;SDS011;8350;52.316;10.530;2022-07-12T04:39:14;7.07;;;6.38;;
16478;SDS011;8350;52.316;10.530;2022-07-12T04:41:44;7.68;;;6.95;;
16478;SDS011;8350;52.316;10.530;2022-07-12T04:44:11;6.82;;;6.22;;
16478;SDS011;8350;52.316;10.530;2022-07-12T04:46:39;7.97;;;6.15;;
16478;SDS011;8350;52.316;10.530;2022-07-12T04:49:06;7.80;;;7.10;;
16478;SDS011;8350;52.316;10.530;2022-07-12T04:51:33;7.80;;;6.97;;
16478;SDS011;8350;52.316;10.530;2022-07-12T04:54:02;6.95;;;6.35;;
16478;SDS011;8350;52.316;10.530;2022-07-12T04:56:29;6.50;;;5.90;;
16478;SDS011;8350;52.316;10.530;2022-07-12T04:58:56;8.20;;;6.85;;
16478;SDS011;8350;52.316;10.530;2022-07-12T05:01:23;7.00;;;6.40;;
16478;SDS011;8350;52.316;10.530;2022-07-12T05:03:51;6.75;;;6.03;;
16478;SDS011;8350;52.316;10.530;2022-07-12T05:06:18;6.85;;;6.15;;
16478;SDS011;8350;52.316;10.530;2022-07-12T05:08:45;6.50;;;5.22;;
16478;SDS011;8350;52.316;10.530;2022-07-12T05:11:12;5.38;;;4.88;;
16478;SDS011;8350;52.316;10.530;2022-07-12T05:13:49;5.38;;;4.88;;
16478;SDS011;8350;52.316;10.530;2022-07-12T05:16:16;4.85;;;4.45;;
16478;SDS011;8350;52.316;10.530;2022-07-12T05:18:43;4.88;;;4.40;;
16478;SDS011;8350;52.316;10.530;2022-07-12T05:21:14;4.15;;;3.80;;
16478;SDS011;8350;52.316;10.530;2022-07-12T05:23:41;3.95;;;3.60;;
16478;SDS011;8350;52.316;10.530;2022-07-12T05:26:07;3.95;;;3.55;;
16478;SDS011;8350;52.316;10.530;2022-07-12T05:28:34;4.70;;;4.07;;
16478;SDS011;8350;52.316;10.530;2022-07-12T05:31:01;4.07;;;3.65;;
16478;SDS011;8350;52.316;10.530;2022-07-12T05:33:28;4.35;;;3.33;;
16478;SDS011;8350;52.316;10.530;2022-07-12T05:35:58;4.28;;;3.88;;
16478;SDS011;8350;52.316;10.530;2022-07-12T05:38:27;3.90;;;3.60;;
16478;SDS011;8350;52.316;10.530;2022-07-12T05:40:54;4.30;;;4.00;;
16478;SDS011;8350;52.316;10.530;2022-07-12T05:43:21;4.40;;;4.00;;
16478;SDS011;8350;52.316;10.530;2022-07-12T05:45:48;4.35;;;3.88;;
16478;SDS011;8350;52.316;10.530;2022-07-12T05:48:14;5.78;;;4.50;;
16478;SDS011;8350;52.316;10.530;2022-07-12T05:50:41;4.57;;;4.18;;
16478;SDS011;8350;52.316;10.530;2022-07-12T05:53:08;4.20;;;3.80;;
16478;SDS011;8350;52.316;10.530;2022-07-12T05:55:50;5.75;;;4.50;;
16478;SDS011;8350;52.316;10.530;2022-07-12T05:58:20;4.53;;;4.20;;
16478;SDS011;8350;52.316;10.530;2022-07-12T06:00:47;4.47;;;4.07;;
16478;SDS011;8350;52.316;10.530;2022-07-12T06:03:14;5.18;;;4.78;;
16478;SDS011;8350;52.316;10.530;2022-07-12T06:05:42;4.78;;;4.35;;
16478;SDS011;8350;52.316;10.530;2022-07-12T06:08:09;4.28;;;3.88;;
16478;SDS011;8350;52.316;10.530;2022-07-12T06:10:36;4.63;;;4.22;;
16478;SDS011;8350;52.316;10.530;2022-07-12T06:13:04;5.22;;;4.53;;
16478;SDS011;8350;52.316;10.530;2022-07-12T06:15:31;4.65;;;4.18;;
16478;SDS011;8350;52.316;10.530;2022-07-12T06:17:58;5.78;;;3.80;;
16478;SDS011;8350;52.316;10.530;2022-07-12T06:20:25;4.53;;;3.47;;
16478;SDS011;8350;52.316;10.530;2022-07-12T06:22:53;3.88;;;3.58;;
16478;SDS011;8350;52.316;10.530;2022-07-12T06:25:20;5.35;;;3.00;;
16478;SDS011;8350;52.316;10.530;2022-07-12T06:27:46;3.70;;;3.05;;
16478;SDS011;8350;52.316;10.530;2022-07-12T06:30:16;4.72;;;2.83;;
16478;SDS011;8350;52.316;10.530;2022-07-12T06:32:49;3.13;;;2.40;;
16478;SDS011;8350;52.316;10.530;2022-07-12T06:35:15;1.90;;;1.80;;
16478;SDS011;8350;52.316;10.530;2022-07-12T06:37:42;2.25;;;2.05;;
16478;SDS011;8350;52.316;10.530;2022-07-12T06:40:10;2.53;;;2.33;;
16478;SDS011;8350;52.316;10.530;2022-07-12T06:42:40;2.92;;;2.45;;
16478;SDS011;8350;52.316;10.530;2022-07-12T06:45:07;2.38;;;2.25;;
16478;SDS011;8350;52.316;10.530;2022-07-12T06:47:36;2.80;;;2.60;;
16478;SDS011;8350;52.316;10.530;2022-07-12T06:50:03;2.20;;;2.00;;
16478;SDS011;8350;52.316;10.530;2022-07-12T06:52:30;1.88;;;1.77;;
16478;SDS011;8350;52.316;10.530;2022-07-12T06:54:57;2.10;;;1.98;;
16478;SDS011;8350;52.316;10.530;2022-07-12T06:57:25;1.83;;;1.73;;
16478;SDS011;8350;52.316;10.530;2022-07-12T06:59:52;4.60;;;2.08;;
16478;SDS011;8350;52.316;10.530;2022-07-12T07:02:22;2.30;;;2.10;;
16478;SDS011;8350;52.316;10.530;2022-07-12T07:04:50;3.10;;;2.35;;
16478;SDS011;8350;52.316;10.530;2022-07-12T07:07:17;2.75;;;2.53;;
16478;SDS011;8350;52.316;10.530;2022-07-12T07:09:44;3.13;;;2.80;;
16478;SDS011;8350;52.316;10.530;2022-07-12T07:12:11;3.60;;;2.67;;
16478;SDS011;8350;52.316;10.530;2022-07-12T07:14:38;2.63;;;2.38;;
16478;SDS011;8350;52.316;10.530;2022-07-12T07:17:04;5.38;;;3.20;;
16478;SDS011;8350;52.316;10.530;2022-07-12T07:19:31;3.17;;;2.88;;
16478;SDS011;8350;52.316;10.530;2022-07-12T07:21:59;2.90;;;2.70;;
16478;SDS011;8350;52.316;10.530;2022-07-12T07:24:26;3.35;;;2.58;;
16478;SDS011;8350;52.316;10.530;2022-07-12T07:26:53;3.80;;;2.13;;
16478;SDS011;8350;52.316;10.530;2022-07-12T07:29:22;3.00;;;1.60;;
16478;SDS011;8350;52.316;10.530;2022-07-12T07:32:03;1.60;;;1.50;;
16478;SDS011;8350;52.316;10.530;2022-07-12T07:34:30;3.10;;;2.00;;
16478;SDS011;8350;52.316;10.530;2022-07-12T07:36:57;2.72;;;1.95;;
16478;SDS011;8350;52.316;10.530;2022-07-12T07:39:25;1.88;;;1.77;;
16478;SDS011;8350;52.316;10.530;2022-07-12T07:41:52;2.10;;;1.90;;
16478;SDS011;8350;52.316;10.530;2022-07-12T07:44:22;2.15;;;1.73;;
16478;SDS011;8350;52.316;10.530;2022-07-12T07:46:48;1.83;;;1.73;;
16478;SDS011;8350;52.316;10.530;2022-07-12T07:49:15;2.08;;;1.70;;
16478;SDS011;8350;52.316;10.530;2022-07-12T07:51:42;2.15;;;1.80;;
16478;SDS011;8350;52.316;10.530;2022-07-12T07:54:10;4.03;;;1.27;;
16478;SDS011;8350;52.316;10.530;2022-07-12T07:56:37;1.80;;;1.60;;
16478;SDS011;8350;52.316;10.530;2022-07-12T07:59:04;2.63;;;1.80;;
16478;SDS011;8350;52.316;10.530;2022-07-12T08:01:32;2.20;;;1.75;;
16478;SDS011;8350;52.316;10.530;2022-07-12T08:04:10;3.67;;;1.70;;
16478;SDS011;8350;52.316;10.530;2022-07-12T08:06:36;3.53;;;1.80;;
16478;SDS011;8350;52.316;10.530;2022-07-12T08:09:15;1.77;;;1.50;;
16478;SDS011;8350;52.316;10.530;2022-07-12T08:11:42;2.45;;;1.48;;
16478;SDS011;8350;52.316;10.530;2022-07-12T08:14:24;1.85;;;1.50;;
16478;SDS011;8350;52.316;10.530;2022-07-12T08:16:50;1.35;;;1.23;;
16478;SDS011;8350;52.316;10.530;2022-07-12T08:19:17;1.88;;;1.48;;
16478;SDS011;8350;52.316;10.530;2022-07-12T08:21:44;1.73;;;1.27;;
16478;SDS011;8350;52.316;10.530;2022-07-12T08:24:11;2.38;;;1.50;;
16478;SDS011;8350;52.316;10.530;2022-07-12T08:26:39;1.75;;;1.35;;
16478;SDS011;8350;52.316;10.530;2022-07-12T08:29:06;1.38;;;1.05;;
16478;SDS011;8350;52.316;10.530;2022-07-12T08:31:32;3.30;;;1.70;;
16478;SDS011;8350;52.316;10.530;2022-07-12T08:33:59;1.95;;;1.35;;
16478;SDS011;8350;52.316;10.530;2022-07-12T08:36:26;2.28;;;1.20;;
16478;SDS011;8350;52.316;10.530;2022-07-12T08:38:53;3.67;;;1.40;;
16478;SDS011;8350;52.316;10.530;2022-07-12T08:41:20;1.77;;;1.20;;
16478;SDS011;8350;52.316;10.530;2022-07-12T08:43:49;1.42;;;1.33;;
16478;SDS011;8350;52.316;10.530;2022-07-12T08:46:15;1.75;;;1.30;;
16478;SDS011;8350;52.316;10.530;2022-07-12T08:48:42;1.88;;;1.08;;
16478;SDS011;8350;52.316;10.530;2022-07-12T08:51:10;1.50;;;1.40;;
16478;SDS011;8350;52.316;10.530;2022-07-12T08:53:43;3.20;;;1.63;;
16478;SDS011;8350;52.316;10.530;2022-07-12T08:56:29;2.90;;;1.20;;
16478;SDS011;8350;52.316;10.530;2022-07-12T08:59:11;2.05;;;1.30;;
16478;SDS011;8350;52.316;10.530;2022-07-12T09:01:40;1.95;;;1.40;;
16478;SDS011;8350;52.316;10.530;2022-07-12T09:04:11;3.42;;;1.60;;
16478;SDS011;8350;52.316;10.530;2022-07-12T09:06:39;2.97;;;1.42;;
16478;SDS011;8350;52.316;10.530;2022-07-12T09:09:06;1.60;;;1.50;;
16478;SDS011;8350;52.316;10.530;2022-07-12T09:11:35;2.17;;;1.98;;
16478;SDS011;8350;52.316;10.530;2022-07-12T09:14:03;2.45;;;2.10;;
16478;SDS011;8350;52.316;10.530;2022-07-12T09:16:32;3.30;;;2.40;;
16478;SDS011;8350;52.316;10.530;2022-07-12T09:19:12;2.50;;;2.30;;
16478;SDS011;8350;52.316;10.530;2022-07-12T09:21:45;2.72;;;2.00;;
16478;SDS011;8350;52.316;10.530;2022-07-12T09:24:14;2.72;;;2.05;;
16478;SDS011;8350;52.316;10.530;2022-07-12T09:26:41;2.58;;;2.10;;
16478;SDS011;8350;52.316;10.530;2022-07-12T09:29:09;4.22;;;2.15;;
16478;SDS011;8350;52.316;10.530;2022-07-12T09:31:39;4.57;;;2.47;;
16478;SDS011;8350;52.316;10.530;2022-07-12T09:34:35;2.58;;;2.38;;
16478;SDS011;8350;52.316;10.530;2022-07-12T09:37:19;2.83;;;2.60;;
16478;SDS011;8350;52.316;10.530;2022-07-12T09:39:46;5.20;;;3.17;;
16478;SDS011;8350;52.316;10.530;2022-07-12T09:42:14;3.80;;;3.50;;
16478;SDS011;8350;52.316;10.530;2022-07-12T09:44:41;3.33;;;3.03;;
16478;SDS011;8350;52.316;10.530;2022-07-12T09:47:10;3.10;;;2.90;;
16478;SDS011;8350;52.316;10.530;2022-07-12T09:49:39;3.72;;;3.03;;
16478;SDS011;8350;52.316;10.530;2022-07-12T09:52:09;4.43;;;2.70;;
16478;SDS011;8350;52.316;10.530;2022-07-12T09:54:39;3.45;;;2.85;;
16478;SDS011;8350;52.316;10.530;2022-07-12T09:57:13;3.42;;;3.13;;
16478;SDS011;8350;52.316;10.530;2022-07-12T09:59:46;3.60;;;3.30;;
16478;SDS011;8350;52.316;10.530;2022-07-12T10:02:16;3.05;;;2.85;;
16478;SDS011;8350;52.316;10.530;2022-07-12T10:04:44;4.63;;;3.30;;
16478;SDS011;8350;52.316;10.530;2022-07-12T10:07:13;3.83;;;3.28;;
16478;SDS011;8350;52.316;10.530;2022-07-12T10:09:44;2.85;;;2.60;;
16478;SDS011;8350;52.316;10.530;2022-07-12T10:12:14;3.40;;;2.90;;
16478;SDS011;8350;52.316;10.530;2022-07-12T10:14:43;2.90;;;2.70;;
16478;SDS011;8350;52.316;10.530;2022-07-12T10:17:13;2.60;;;2.40;;
16478;SDS011;8350;52.316;10.530;2022-07-12T10:19:48;3.17;;;2.67;;
16478;SDS011;8350;52.316;10.530;2022-07-12T10:22:19;2.85;;;2.10;;
16478;SDS011;8350;52.316;10.530;2022-07-12T10:24:50;2.78;;;2.00;;
16478;SDS011;8350;52.316;10.530;2022-07-12T10:27:27;2.38;;;2.17;;
16478;SDS011;8350;52.316;10.530;2022-07-12T10:30:11;1.88;;;1.75;;
16478;SDS011;8350;52.316;10.530;2022-07-12T10:32:43;2.30;;;2.08;;
16478;SDS011;8350;52.316;10.530;2022-07-12T10:35:15;2.13;;;1.70;;
16478;SDS011;8350;52.316;10.530;2022-07-12T10:40:48;1.90;;;1.80;;
16478;SDS011;8350;52.316;10.530;2022-07-12T10:43:17;2.65;;;2.17;;
16478;SDS011;8350;52.316;10.530;2022-07-12T10:45:46;3.53;;;1.83;;
16478;SDS011;8350;52.316;10.530;2022-07-12T10:48:19;2.95;;;2.00;;
16478;SDS011;8350;52.316;10.530;2022-07-12T10:50:52;1.88;;;1.70;;
16478;SDS011;8350;52.316;10.530;2022-07-12T10:53:23;1.85;;;1.75;;
16478;SDS011;8350;52.316;10.530;2022-07-12T10:56:07;3.83;;;1.80;;
16478;SDS011;8350;52.316;10.530;2022-07-12T10:58:53;1.63;;;1.52;;
16478;SDS011;8350;52.316;10.530;2022-07-12T11:01:22;2.30;;;1.40;;
16478;SDS011;8350;52.316;10.530;2022-07-12T11:03:49;1.33;;;1.23;;
16478;SDS011;8350;52.316;10.530;2022-07-12T11:06:19;2.28;;;2.05;;
16478;SDS011;8350;52.316;10.530;2022-07-12T11:08:54;4.43;;;1.70;;
16478;SDS011;8350;52.316;10.530;2022-07-12T11:11:25;3.58;;;1.42;;
16478;SDS011;8350;52.316;10.530;2022-07-12T11:13:53;1.77;;;1.20;;
16478;SDS011;8350;52.316;10.530;2022-07-12T11:16:21;2.75;;;1.33;;
16478;SDS011;8350;52.316;10.530;2022-07-12T11:18:48;2.33;;;1.20;;
16478;SDS011;8350;52.316;10.530;2022-07-12T11:21:15;2.83;;;1.45;;
16478;SDS011;8350;52.316;10.530;2022-07-12T11:23:44;2.38;;;1.17;;
16478;SDS011;8350;52.316;10.530;2022-07-12T11:26:11;1.10;;;1.00;;
16478;SDS011;8350;52.316;10.530;2022-07-12T11:28:42;1.48;;;1.30;;
16478;SDS011;8350;52.316;10.530;2022-07-12T11:31:12;1.70;;;1.10;;
16478;SDS011;8350;52.316;10.530;2022-07-12T11:33:42;1.25;;;1.23;;
16478;SDS011;8350;52.316;10.530;2022-07-12T11:36:10;1.73;;;1.33;;
16478;SDS011;8350;52.316;10.530;2022-07-12T11:38:39;1.33;;;1.20;;
16478;SDS011;8350;52.316;10.530;2022-07-12T11:41:14;1.40;;;1.30;;
16478;SDS011;8350;52.316;10.530;2022-07-12T11:43:42;1.42;;;1.20;;
16478;SDS011;8350;52.316;10.530;2022-07-12T11:46:09;1.25;;;1.00;;
16478;SDS011;8350;52.316;10.530;2022-07-12T11:48:37;2.13;;;1.23;;
16478;SDS011;8350;52.316;10.530;2022-07-12T11:51:04;2.40;;;1.35;;
16478;SDS011;8350;52.316;10.530;2022-07-12T11:53:33;2.33;;;1.20;;
16478;SDS011;8350;52.316;10.530;2022-07-12T11:56:03;4.05;;;1.58;;
16478;SDS011;8350;52.316;10.530;2022-07-12T11:58:32;2.35;;;1.25;;
16478;SDS011;8350;52.316;10.530;2022-07-12T12:01:03;0.90;;;0.90;;
16478;SDS011;8350;52.316;10.530;2022-07-12T12:03:41;1.10;;;1.10;;
16478;SDS011;8350;52.316;10.530;2022-07-12T12:06:08;2.95;;;1.50;;
16478;SDS011;8350;52.316;10.530;2022-07-12T12:08:35;2.15;;;0.95;;
16478;SDS011;8350;52.316;10.530;2022-07-12T12:11:03;1.27;;;1.17;;
16478;SDS011;8350;52.316;10.530;2022-07-12T12:13:30;1.95;;;1.10;;
16478;SDS011;8350;52.316;10.530;2022-07-12T12:15:57;3.75;;;1.65;;
16478;SDS011;8350;52.316;10.530;2022-07-12T12:18:29;2.70;;;1.40;;
16478;SDS011;8350;52.316;10.530;2022-07-12T12:20:58;1.88;;;1.45;;
16478;SDS011;8350;52.316;10.530;2022-07-12T12:23:26;2.65;;;1.67;;
16478;SDS011;8350;52.316;10.530;2022-07-12T12:26:10;1.70;;;1.15;;
16478;SDS011;8350;52.316;10.530;2022-07-12T12:28:42;1.95;;;1.33;;
16478;SDS011;8350;52.316;10.530;2022-07-12T12:31:13;1.95;;;1.10;;
16478;SDS011;8350;52.316;10.530;2022-07-12T12:33:41;2.00;;;1.40;;
16478;SDS011;8350;52.316;10.530;2022-07-12T12:36:12;1.60;;;1.50;;
16478;SDS011;8350;52.316;10.530;2022-07-12T12:38:40;2.53;;;1.42;;
16478;SDS011;8350;52.316;10.530;2022-07-12T12:41:08;1.83;;;1.40;;
16478;SDS011;8350;52.316;10.530;2022-07-12T12:43:37;3.03;;;1.55;;
16478;SDS011;8350;52.316;10.530;2022-07-12T12:46:04;2.47;;;1.60;;
16478;SDS011;8350;52.316;10.530;2022-07-12T12:48:32;2.60;;;1.50;;
16478;SDS011;8350;52.316;10.530;2022-07-12T12:51:03;1.83;;;1.73;;
16478;SDS011;8350;52.316;10.530;2022-07-12T12:53:32;2.80;;;1.60;;
16478;SDS011;8350;52.316;10.530;2022-07-12T12:56:04;1.27;;;1.27;;
16478;SDS011;8350;52.316;10.530;2022-07-12T12:58:33;1.80;;;1.33;;
16478;SDS011;8350;52.316;10.530;2022-07-12T13:01:08;1.50;;;1.40;;
16478;SDS011;8350;52.316;10.530;2022-07-12T13:03:35;2.22;;;1.60;;
16478;SDS011;8350;52.316;10.530;2022-07-12T13:06:04;1.77;;;1.50;;
16478;SDS011;8350;52.316;10.530;2022-07-12T13:08:31;1.45;;;1.35;;
16478;SDS011;8350;52.316;10.530;2022-07-12T13:10:58;1.58;;;1.48;;
16478;SDS011;8350;52.316;10.530;2022-07-12T13:13:45;1.50;;;1.40;;
16478;SDS011;8350;52.316;10.530;2022-07-12T13:16:11;1.65;;;1.55;;
16478;SDS011;8350;52.316;10.530;2022-07-12T13:18:38;2.47;;;1.50;;
16478;SDS011;8350;52.316;10.530;2022-07-12T13:21:12;1.98;;;1.40;;
16478;SDS011;8350;52.316;10.530;2022-07-12T13:23:42;2.28;;;1.40;;
16478;SDS011;8350;52.316;10.530;2022-07-12T13:26:15;1.60;;;1.50;;
16478;SDS011;8350;52.316;10.530;2022-07-12T13:28:42;3.35;;;1.65;;
16478;SDS011;8350;52.316;10.530;2022-07-12T13:31:10;1.75;;;1.50;;
16478;SDS011;8350;52.316;10.530;2022-07-12T13:33:37;1.67;;;1.52;;
16478;SDS011;8350;52.316;10.530;2022-07-12T13:36:03;2.00;;;1.90;;
16478;SDS011;8350;52.316;10.530;2022-07-12T13:38:30;1.70;;;1.60;;
16478;SDS011;8350;52.316;10.530;2022-07-12T13:40:57;1.35;;;1.10;;
16478;SDS011;8350;52.316;10.530;2022-07-12T13:43:24;6.05;;;1.50;;
16478;SDS011;8350;52.316;10.530;2022-07-12T13:45:51;1.17;;;1.08;;
16478;SDS011;8350;52.316;10.530;2022-07-12T13:48:19;1.08;;;1.02;;
16478;SDS011;8350;52.316;10.530;2022-07-12T13:50:49;2.30;;;1.30;;
16478;SDS011;8350;52.316;10.530;2022-07-12T13:53:16;1.63;;;1.10;;
16478;SDS011;8350;52.316;10.530;2022-07-12T13:55:42;2.25;;;1.10;;
16478;SDS011;8350;52.316;10.530;2022-07-12T13:58:09;3.30;;;1.10;;
16478;SDS011;8350;52.316;10.530;2022-07-12T14:00:37;1.30;;;1.20;;
16478;SDS011;8350;52.316;10.530;2022-07-12T14:03:04;1.40;;;1.30;;
16478;SDS011;8350;52.316;10.530;2022-07-12T14:05:32;2.78;;;1.52;;
16478;SDS011;8350;52.316;10.530;2022-07-12T14:07:59;1.38;;;1.27;;
16478;SDS011;8350;52.316;10.530;2022-07-12T14:10:26;1.40;;;1.30;;
16478;SDS011;8350;52.316;10.530;2022-07-12T14:12:53;1.60;;;1.50;;
16478;SDS011;8350;52.316;10.530;2022-07-12T14:15:23;1.35;;;1.25;;
16478;SDS011;8350;52.316;10.530;2022-07-12T14:18:07;2.47;;;1.50;;
16478;SDS011;8350;52.316;10.530;2022-07-12T14:20:35;1.85;;;1.75;;
16478;SDS011;8350;52.316;10.530;2022-07-12T14:23:02;2.38;;;1.55;;
16478;SDS011;8350;52.316;10.530;2022-07-12T14:25:31;2.70;;;1.50;;
16478;SDS011;8350;52.316;10.530;2022-07-12T14:27:58;1.80;;;1.58;;
16478;SDS011;8350;52.316;10.530;2022-07-12T14:30:24;2.22;;;1.80;;
16478;SDS011;8350;52.316;10.530;2022-07-12T14:32:51;1.70;;;1.42;;
16478;SDS011;8350;52.316;10.530;2022-07-12T14:35:18;1.83;;;1.73;;
16478;SDS011;8350;52.316;10.530;2022-07-12T14:37:46;1.95;;;1.55;;
16478;SDS011;8350;52.316;10.530;2022-07-12T14:40:13;1.70;;;1.52;;
16478;SDS011;8350;52.316;10.530;2022-07-12T14:42:39;1.70;;;1.52;;
16478;SDS011;8350;52.316;10.530;2022-07-12T14:45:07;1.48;;;1.38;;
16478;SDS011;8350;52.316;10.530;2022-07-12T14:47:34;2.22;;;1.23;;
16478;SDS011;8350;52.316;10.530;2022-07-12T14:50:01;3.25;;;1.45;;
16478;SDS011;8350;52.316;10.530;2022-07-12T14:52:32;1.55;;;1.45;;
16478;SDS011;8350;52.316;10.530;2022-07-12T14:58:38;2.80;;;1.38;;
16478;SDS011;8350;52.316;10.530;2022-07-12T15:01:05;1.60;;;1.38;;
16478;SDS011;8350;52.316;10.530;2022-07-12T15:03:34;1.40;;;1.30;;
16478;SDS011;8350;52.316;10.530;2022-07-12T15:06:25;1.75;;;1.30;;